sensor_id;sensor_type;location;lat;lon;timestamp;P1;durP1;ratioP1;P2;durP2;ratioP2
73729;SDS011;62036;48.128;16.458;2022-12-11T00:02:39;22.10;;;8.60;;
73729;SDS011;62036;48.128;16.458;2022-12-11T00:07:31;24.85;;;10.10;;
73729;SDS011;62036;48.128;16.458;2022-12-11T00:12:23;19.73;;;9.00;;
73729;SDS011;62036;48.128;16.458;2022-12-11T00:17:15;21.23;;;9.30;;
73729;SDS011;62036;48.128;16.458;2022-12-11T00:22:07;23.85;;;9.20;;
73729;SDS011;62036;48.128;16.458;2022-12-11T00:24:33;25.05;;;9.70;;
73729;SDS011;62036;48.128;16.458;2022-12-11T00:29:25;21.98;;;8.02;;
73729;SDS011;62036;48.128;16.458;2022-12-11T00:34:16;24.13;;;10.57;;
73729;SDS011;62036;48.128;16.458;2022-12-11T00:39:08;20.05;;;8.70;;
73729;SDS011;62036;48.128;16.458;2022-12-11T00:44:00;16.85;;;6.93;;
73729;SDS011;62036;48.128;16.458;2022-12-11T00:48:52;18.20;;;8.75;;
73729;SDS011;62036;48.128;16.458;2022-12-11T00:53:44;21.17;;;8.52;;
73729;SDS011;62036;48.128;16.458;2022-12-11T00:56:14;23.00;;;8.77;;
73729;SDS011;62036;48.128;16.458;2022-12-11T00:58:40;17.00;;;7.10;;
73729;SDS011;62036;48.128;16.458;2022-12-11T01:03:32;24.65;;;8.82;;
73729;SDS011;62036;48.128;16.458;2022-12-11T01:08:24;14.52;;;7.30;;
73729;SDS011;62036;48.128;16.458;2022-12-11T01:13:16;13.95;;;7.00;;
73729;SDS011;62036;48.128;16.458;2022-12-11T01:18:09;19.73;;;8.05;;
73729;SDS011;62036;48.128;16.458;2022-12-11T01:20:36;18.70;;;7.55;;
73729;SDS011;62036;48.128;16.458;2022-12-11T01:23:04;19.70;;;8.60;;
73729;SDS011;62036;48.128;16.458;2022-12-11T01:25:30;19.05;;;8.50;;
73729;SDS011;62036;48.128;16.458;2022-12-11T01:27:57;18.85;;;7.03;;
73729;SDS011;62036;48.128;16.458;2022-12-11T01:30:24;15.13;;;5.07;;
73729;SDS011;62036;48.128;16.458;2022-12-11T01:32:51;15.27;;;6.75;;
73729;SDS011;62036;48.128;16.458;2022-12-11T01:35:17;16.50;;;7.80;;
73729;SDS011;62036;48.128;16.458;2022-12-11T01:37:43;16.73;;;8.25;;
73729;SDS011;62036;48.128;16.458;2022-12-11T01:40:10;20.35;;;8.27;;
73729;SDS011;62036;48.128;16.458;2022-12-11T01:42:38;23.75;;;9.82;;
73729;SDS011;62036;48.128;16.458;2022-12-11T01:47:39;19.45;;;8.20;;
73729;SDS011;62036;48.128;16.458;2022-12-11T01:52:31;11.52;;;5.57;;
73729;SDS011;62036;48.128;16.458;2022-12-11T01:54:57;17.92;;;7.68;;
73729;SDS011;62036;48.128;16.458;2022-12-11T01:59:49;20.65;;;7.07;;
73729;SDS011;62036;48.128;16.458;2022-12-11T02:04:41;16.92;;;7.72;;
73729;SDS011;62036;48.128;16.458;2022-12-11T02:07:08;16.25;;;7.25;;
73729;SDS011;62036;48.128;16.458;2022-12-11T02:09:35;15.80;;;6.88;;
73729;SDS011;62036;48.128;16.458;2022-12-11T02:12:05;15.10;;;7.15;;
73729;SDS011;62036;48.128;16.458;2022-12-11T02:22:00;15.13;;;6.80;;
73729;SDS011;62036;48.128;16.458;2022-12-11T02:24:40;10.88;;;5.18;;
73729;SDS011;62036;48.128;16.458;2022-12-11T02:29:57;15.18;;;7.88;;
73729;SDS011;62036;48.128;16.458;2022-12-11T02:32:29;11.85;;;6.25;;
73729;SDS011;62036;48.128;16.458;2022-12-11T02:39:49;12.45;;;6.47;;
73729;SDS011;62036;48.128;16.458;2022-12-11T02:42:17;11.65;;;5.32;;
73729;SDS011;62036;48.128;16.458;2022-12-11T02:44:44;17.20;;;7.70;;
73729;SDS011;62036;48.128;16.458;2022-12-11T02:47:11;15.70;;;6.28;;
73729;SDS011;62036;48.128;16.458;2022-12-11T02:49:39;14.65;;;7.05;;
73729;SDS011;62036;48.128;16.458;2022-12-11T02:52:06;15.13;;;7.18;;
73729;SDS011;62036;48.128;16.458;2022-12-11T02:54:35;10.50;;;5.28;;
73729;SDS011;62036;48.128;16.458;2022-12-11T02:57:04;17.58;;;7.97;;
73729;SDS011;62036;48.128;16.458;2022-12-11T02:59:35;14.23;;;6.13;;
73729;SDS011;62036;48.128;16.458;2022-12-11T03:02:02;14.57;;;5.75;;
73729;SDS011;62036;48.128;16.458;2022-12-11T03:04:28;14.98;;;7.28;;
73729;SDS011;62036;48.128;16.458;2022-12-11T03:06:55;18.13;;;7.38;;
73729;SDS011;62036;48.128;16.458;2022-12-11T03:09:24;9.10;;;4.57;;
73729;SDS011;62036;48.128;16.458;2022-12-11T03:11:50;10.35;;;5.53;;
73729;SDS011;62036;48.128;16.458;2022-12-11T03:14:16;13.40;;;6.28;;
73729;SDS011;62036;48.128;16.458;2022-12-11T03:19:17;15.52;;;5.70;;
73729;SDS011;62036;48.128;16.458;2022-12-11T03:24:38;13.68;;;6.22;;
73729;SDS011;62036;48.128;16.458;2022-12-11T03:27:12;12.32;;;5.75;;
73729;SDS011;62036;48.128;16.458;2022-12-11T03:29:41;9.90;;;4.57;;
73729;SDS011;62036;48.128;16.458;2022-12-11T03:32:12;14.55;;;5.78;;
73729;SDS011;62036;48.128;16.458;2022-12-11T03:39:32;7.95;;;3.92;;
73729;SDS011;62036;48.128;16.458;2022-12-11T03:42:00;14.45;;;6.45;;
73729;SDS011;62036;48.128;16.458;2022-12-11T03:44:26;9.25;;;4.65;;
73729;SDS011;62036;48.128;16.458;2022-12-11T03:46:53;12.23;;;6.10;;
73729;SDS011;62036;48.128;16.458;2022-12-11T03:49:22;13.45;;;6.18;;
73729;SDS011;62036;48.128;16.458;2022-12-11T03:51:49;9.18;;;4.57;;
73729;SDS011;62036;48.128;16.458;2022-12-11T03:54:16;10.70;;;5.57;;
73729;SDS011;62036;48.128;16.458;2022-12-11T03:56:43;13.40;;;6.47;;
73729;SDS011;62036;48.128;16.458;2022-12-11T03:59:10;10.93;;;6.43;;
73729;SDS011;62036;48.128;16.458;2022-12-11T04:04:02;9.93;;;4.90;;
73729;SDS011;62036;48.128;16.458;2022-12-11T04:08:54;14.45;;;7.53;;
73729;SDS011;62036;48.128;16.458;2022-12-11T04:13:58;12.15;;;6.00;;
73729;SDS011;62036;48.128;16.458;2022-12-11T04:16:43;12.05;;;5.57;;
73729;SDS011;62036;48.128;16.458;2022-12-11T04:21:54;12.88;;;6.32;;
73729;SDS011;62036;48.128;16.458;2022-12-11T04:24:39;13.85;;;6.57;;
73729;SDS011;62036;48.128;16.458;2022-12-11T04:29:31;11.85;;;5.88;;
73729;SDS011;62036;48.128;16.458;2022-12-11T04:34:23;18.55;;;6.18;;
73729;SDS011;62036;48.128;16.458;2022-12-11T04:39:14;14.00;;;6.82;;
73729;SDS011;62036;48.128;16.458;2022-12-11T04:41:41;13.25;;;6.00;;
73729;SDS011;62036;48.128;16.458;2022-12-11T04:44:07;14.18;;;6.60;;
73729;SDS011;62036;48.128;16.458;2022-12-11T04:48:59;11.10;;;5.80;;
73729;SDS011;62036;48.128;16.458;2022-12-11T04:51:25;12.27;;;6.25;;
73729;SDS011;62036;48.128;16.458;2022-12-11T04:53:51;12.63;;;7.72;;
73729;SDS011;62036;48.128;16.458;2022-12-11T04:56:18;14.57;;;6.60;;
73729;SDS011;62036;48.128;16.458;2022-12-11T04:58:44;15.40;;;6.45;;
73729;SDS011;62036;48.128;16.458;2022-12-11T05:01:11;14.95;;;5.45;;
73729;SDS011;62036;48.128;16.458;2022-12-11T05:03:38;10.50;;;7.18;;
73729;SDS011;62036;48.128;16.458;2022-12-11T05:08:30;13.52;;;5.95;;
73729;SDS011;62036;48.128;16.458;2022-12-11T05:10:59;10.07;;;4.55;;
73729;SDS011;62036;48.128;16.458;2022-12-11T05:13:26;12.23;;;5.80;;
73729;SDS011;62036;48.128;16.458;2022-12-11T05:15:53;12.30;;;6.13;;
73729;SDS011;62036;48.128;16.458;2022-12-11T05:20:53;9.45;;;4.28;;
73729;SDS011;62036;48.128;16.458;2022-12-11T05:23:19;13.82;;;6.85;;
73729;SDS011;62036;48.128;16.458;2022-12-11T05:25:52;11.68;;;6.45;;
73729;SDS011;62036;48.128;16.458;2022-12-11T05:28:18;11.32;;;6.13;;
73729;SDS011;62036;48.128;16.458;2022-12-11T05:30:45;13.57;;;5.75;;
73729;SDS011;62036;48.128;16.458;2022-12-11T05:33:11;16.00;;;8.10;;
73729;SDS011;62036;48.128;16.458;2022-12-11T05:35:37;10.85;;;5.63;;
73729;SDS011;62036;48.128;16.458;2022-12-11T05:38:03;12.40;;;6.05;;
73729;SDS011;62036;48.128;16.458;2022-12-11T05:42:55;10.07;;;5.47;;
73729;SDS011;62036;48.128;16.458;2022-12-11T05:45:21;12.85;;;6.45;;
73729;SDS011;62036;48.128;16.458;2022-12-11T05:47:47;10.77;;;4.38;;
73729;SDS011;62036;48.128;16.458;2022-12-11T05:50:13;14.93;;;7.00;;
73729;SDS011;62036;48.128;16.458;2022-12-11T05:52:39;30.15;;;7.70;;
73729;SDS011;62036;48.128;16.458;2022-12-11T05:55:05;12.65;;;6.38;;
73729;SDS011;62036;48.128;16.458;2022-12-11T05:57:33;11.70;;;6.55;;
73729;SDS011;62036;48.128;16.458;2022-12-11T05:59:59;12.38;;;6.25;;
73729;SDS011;62036;48.128;16.458;2022-12-11T06:02:25;15.32;;;5.65;;
73729;SDS011;62036;48.128;16.458;2022-12-11T06:04:51;11.65;;;5.93;;
73729;SDS011;62036;48.128;16.458;2022-12-11T06:07:17;14.35;;;6.38;;
73729;SDS011;62036;48.128;16.458;2022-12-11T06:09:43;11.57;;;6.05;;
73729;SDS011;62036;48.128;16.458;2022-12-11T06:14:35;10.35;;;5.03;;
73729;SDS011;62036;48.128;16.458;2022-12-11T06:17:01;12.85;;;6.47;;
73729;SDS011;62036;48.128;16.458;2022-12-11T06:19:27;14.07;;;6.65;;
73729;SDS011;62036;48.128;16.458;2022-12-11T06:21:53;10.60;;;5.35;;
73729;SDS011;62036;48.128;16.458;2022-12-11T06:24:19;9.45;;;5.65;;
73729;SDS011;62036;48.128;16.458;2022-12-11T06:26:45;11.35;;;6.25;;
73729;SDS011;62036;48.128;16.458;2022-12-11T06:31:37;10.90;;;6.38;;
73729;SDS011;62036;48.128;16.458;2022-12-11T06:34:03;11.52;;;5.72;;
73729;SDS011;62036;48.128;16.458;2022-12-11T06:36:29;11.38;;;4.75;;
73729;SDS011;62036;48.128;16.458;2022-12-11T06:38:55;9.95;;;4.75;;
73729;SDS011;62036;48.128;16.458;2022-12-11T06:43:47;8.75;;;5.10;;
73729;SDS011;62036;48.128;16.458;2022-12-11T06:48:39;9.15;;;5.10;;
73729;SDS011;62036;48.128;16.458;2022-12-11T06:51:10;6.30;;;3.42;;
73729;SDS011;62036;48.128;16.458;2022-12-11T06:53:37;8.75;;;5.47;;
73729;SDS011;62036;48.128;16.458;2022-12-11T06:58:29;8.98;;;4.38;;
73729;SDS011;62036;48.128;16.458;2022-12-11T07:03:21;7.30;;;4.40;;
73729;SDS011;62036;48.128;16.458;2022-12-11T07:05:47;7.57;;;5.60;;
73729;SDS011;62036;48.128;16.458;2022-12-11T07:08:13;10.57;;;4.00;;
73729;SDS011;62036;48.128;16.458;2022-12-11T07:10:39;8.90;;;4.65;;
73729;SDS011;62036;48.128;16.458;2022-12-11T07:13:05;6.72;;;2.85;;
73729;SDS011;62036;48.128;16.458;2022-12-11T07:15:31;6.40;;;3.50;;
73729;SDS011;62036;48.128;16.458;2022-12-11T07:17:57;9.63;;;4.70;;
73729;SDS011;62036;48.128;16.458;2022-12-11T07:20:23;8.77;;;4.22;;
73729;SDS011;62036;48.128;16.458;2022-12-11T07:22:49;9.27;;;3.42;;
73729;SDS011;62036;48.128;16.458;2022-12-11T07:25:15;9.38;;;5.03;;
73729;SDS011;62036;48.128;16.458;2022-12-11T07:30:08;7.78;;;4.35;;
73729;SDS011;62036;48.128;16.458;2022-12-11T07:32:34;8.60;;;4.20;;
73729;SDS011;62036;48.128;16.458;2022-12-11T07:35:01;8.10;;;3.92;;
73729;SDS011;62036;48.128;16.458;2022-12-11T07:39:52;10.02;;;4.65;;
73729;SDS011;62036;48.128;16.458;2022-12-11T07:44:44;7.30;;;3.58;;
73729;SDS011;62036;48.128;16.458;2022-12-11T07:47:10;7.93;;;4.30;;
73729;SDS011;62036;48.128;16.458;2022-12-11T07:49:36;10.40;;;5.72;;
73729;SDS011;62036;48.128;16.458;2022-12-11T07:52:02;5.88;;;3.90;;
73729;SDS011;62036;48.128;16.458;2022-12-11T07:56:54;11.38;;;4.95;;
73729;SDS011;62036;48.128;16.458;2022-12-11T07:59:21;7.03;;;4.07;;
73729;SDS011;62036;48.128;16.458;2022-12-11T08:04:13;7.90;;;4.60;;
73729;SDS011;62036;48.128;16.458;2022-12-11T08:06:40;8.38;;;4.60;;
73729;SDS011;62036;48.128;16.458;2022-12-11T08:09:07;10.00;;;4.72;;
73729;SDS011;62036;48.128;16.458;2022-12-11T08:11:33;7.43;;;3.88;;
73729;SDS011;62036;48.128;16.458;2022-12-11T08:16:26;4.65;;;3.60;;
73729;SDS011;62036;48.128;16.458;2022-12-11T08:18:52;4.90;;;3.15;;
73729;SDS011;62036;48.128;16.458;2022-12-11T08:23:44;6.25;;;4.30;;
73729;SDS011;62036;48.128;16.458;2022-12-11T08:26:12;7.70;;;3.97;;
73729;SDS011;62036;48.128;16.458;2022-12-11T08:28:38;5.80;;;3.75;;
73729;SDS011;62036;48.128;16.458;2022-12-11T08:33:30;5.22;;;2.60;;
73729;SDS011;62036;48.128;16.458;2022-12-11T08:35:56;3.92;;;2.42;;
73729;SDS011;62036;48.128;16.458;2022-12-11T08:40:48;5.40;;;3.72;;
73729;SDS011;62036;48.128;16.458;2022-12-11T08:43:14;8.60;;;3.95;;
73729;SDS011;62036;48.128;16.458;2022-12-11T08:45:40;8.70;;;5.30;;
73729;SDS011;62036;48.128;16.458;2022-12-11T08:50:32;6.50;;;4.10;;
73729;SDS011;62036;48.128;16.458;2022-12-11T08:55:24;7.63;;;3.30;;
73729;SDS011;62036;48.128;16.458;2022-12-11T08:57:50;6.35;;;3.83;;
73729;SDS011;62036;48.128;16.458;2022-12-11T09:02:42;8.55;;;4.55;;
73729;SDS011;62036;48.128;16.458;2022-12-11T09:07:35;9.20;;;3.80;;
73729;SDS011;62036;48.128;16.458;2022-12-11T09:10:01;7.22;;;3.40;;
73729;SDS011;62036;48.128;16.458;2022-12-11T09:12:28;7.35;;;3.70;;
73729;SDS011;62036;48.128;16.458;2022-12-11T09:14:54;6.63;;;3.95;;
73729;SDS011;62036;48.128;16.458;2022-12-11T09:19:46;6.03;;;3.35;;
73729;SDS011;62036;48.128;16.458;2022-12-11T09:24:38;7.32;;;4.22;;
73729;SDS011;62036;48.128;16.458;2022-12-11T09:27:04;4.35;;;2.30;;
73729;SDS011;62036;48.128;16.458;2022-12-11T09:29:30;6.50;;;3.35;;
73729;SDS011;62036;48.128;16.458;2022-12-11T09:31:57;6.53;;;3.45;;
73729;SDS011;62036;48.128;16.458;2022-12-11T09:34:23;6.57;;;3.33;;
73729;SDS011;62036;48.128;16.458;2022-12-11T09:39:15;4.63;;;3.25;;
73729;SDS011;62036;48.128;16.458;2022-12-11T09:44:15;5.20;;;2.95;;
73729;SDS011;62036;48.128;16.458;2022-12-11T09:46:42;7.65;;;3.95;;
73729;SDS011;62036;48.128;16.458;2022-12-11T09:49:27;4.88;;;3.20;;
73729;SDS011;62036;48.128;16.458;2022-12-11T09:52:09;6.63;;;3.72;;
73729;SDS011;62036;48.128;16.458;2022-12-11T09:54:43;4.38;;;3.08;;
73729;SDS011;62036;48.128;16.458;2022-12-11T10:02:24;8.10;;;4.70;;
73729;SDS011;62036;48.128;16.458;2022-12-11T10:14:46;6.00;;;3.03;;
73729;SDS011;62036;48.128;16.458;2022-12-11T10:17:32;3.15;;;2.47;;
73729;SDS011;62036;48.128;16.458;2022-12-11T10:20:04;6.18;;;3.20;;
73729;SDS011;62036;48.128;16.458;2022-12-11T10:22:32;5.40;;;2.08;;
73729;SDS011;62036;48.128;16.458;2022-12-11T10:25:03;3.35;;;2.40;;
73729;SDS011;62036;48.128;16.458;2022-12-11T10:27:34;5.22;;;2.55;;
73729;SDS011;62036;48.128;16.458;2022-12-11T10:30:07;5.43;;;3.33;;
73729;SDS011;62036;48.128;16.458;2022-12-11T10:32:41;5.05;;;3.60;;
73729;SDS011;62036;48.128;16.458;2022-12-11T10:37:36;4.22;;;2.28;;
73729;SDS011;62036;48.128;16.458;2022-12-11T10:40:04;4.55;;;3.10;;
73729;SDS011;62036;48.128;16.458;2022-12-11T10:42:30;4.25;;;2.65;;
73729;SDS011;62036;48.128;16.458;2022-12-11T10:47:22;4.90;;;2.72;;
73729;SDS011;62036;48.128;16.458;2022-12-11T10:52:24;5.63;;;2.75;;
73729;SDS011;62036;48.128;16.458;2022-12-11T10:55:02;4.35;;;3.13;;
73729;SDS011;62036;48.128;16.458;2022-12-11T10:57:33;4.78;;;3.20;;
73729;SDS011;62036;48.128;16.458;2022-12-11T10:59:59;5.30;;;3.17;;
73729;SDS011;62036;48.128;16.458;2022-12-11T11:02:38;4.32;;;2.45;;
73729;SDS011;62036;48.128;16.458;2022-12-11T11:05:10;5.28;;;3.60;;
73729;SDS011;62036;48.128;16.458;2022-12-11T11:07:36;4.35;;;2.17;;
73729;SDS011;62036;48.128;16.458;2022-12-11T11:12:28;6.65;;;3.03;;
73729;SDS011;62036;48.128;16.458;2022-12-11T11:17:20;4.07;;;3.25;;
73729;SDS011;62036;48.128;16.458;2022-12-11T11:22:16;4.25;;;2.70;;
73729;SDS011;62036;48.128;16.458;2022-12-11T11:24:44;3.95;;;2.88;;
73729;SDS011;62036;48.128;16.458;2022-12-11T11:27:18;5.15;;;2.55;;
73729;SDS011;62036;48.128;16.458;2022-12-11T11:29:47;5.45;;;2.90;;
73729;SDS011;62036;48.128;16.458;2022-12-11T11:32:25;4.68;;;2.90;;
73729;SDS011;62036;48.128;16.458;2022-12-11T11:34:51;5.60;;;3.10;;
73729;SDS011;62036;48.128;16.458;2022-12-11T11:39:43;6.28;;;3.90;;
73729;SDS011;62036;48.128;16.458;2022-12-11T11:42:14;5.85;;;3.47;;
73729;SDS011;62036;48.128;16.458;2022-12-11T11:44:43;4.63;;;2.42;;
73729;SDS011;62036;48.128;16.458;2022-12-11T11:47:22;4.63;;;2.72;;
73729;SDS011;62036;48.128;16.458;2022-12-11T11:49:54;7.00;;;4.18;;
73729;SDS011;62036;48.128;16.458;2022-12-11T11:52:27;4.30;;;3.80;;
73729;SDS011;62036;48.128;16.458;2022-12-11T11:58:00;5.25;;;2.53;;
73729;SDS011;62036;48.128;16.458;2022-12-11T12:00:25;3.85;;;2.83;;
73729;SDS011;62036;48.128;16.458;2022-12-11T12:02:56;3.83;;;3.00;;
73729;SDS011;62036;48.128;16.458;2022-12-11T12:05:25;3.03;;;1.75;;
73729;SDS011;62036;48.128;16.458;2022-12-11T12:10:46;5.93;;;2.72;;
73729;SDS011;62036;48.128;16.458;2022-12-11T12:13:24;4.63;;;2.35;;
73729;SDS011;62036;48.128;16.458;2022-12-11T12:15:54;10.18;;;3.95;;
73729;SDS011;62036;48.128;16.458;2022-12-11T12:18:24;4.03;;;2.22;;
73729;SDS011;62036;48.128;16.458;2022-12-11T12:21:01;4.78;;;2.30;;
73729;SDS011;62036;48.128;16.458;2022-12-11T12:23:41;4.35;;;2.38;;
73729;SDS011;62036;48.128;16.458;2022-12-11T12:26:28;6.10;;;3.42;;
73729;SDS011;62036;48.128;16.458;2022-12-11T12:34:16;4.20;;;2.72;;
73729;SDS011;62036;48.128;16.458;2022-12-11T12:42:01;4.28;;;2.47;;
73729;SDS011;62036;48.128;16.458;2022-12-11T12:44:33;6.32;;;3.88;;
73729;SDS011;62036;48.128;16.458;2022-12-11T12:47:02;5.72;;;2.45;;
73729;SDS011;62036;48.128;16.458;2022-12-11T12:49:40;4.13;;;2.22;;
73729;SDS011;62036;48.128;16.458;2022-12-11T12:52:14;3.90;;;2.22;;
73729;SDS011;62036;48.128;16.458;2022-12-11T12:54:41;4.95;;;2.83;;
73729;SDS011;62036;48.128;16.458;2022-12-11T12:57:29;5.43;;;2.45;;
73729;SDS011;62036;48.128;16.458;2022-12-11T12:59:55;4.03;;;2.42;;
73729;SDS011;62036;48.128;16.458;2022-12-11T13:02:21;3.88;;;2.70;;
73729;SDS011;62036;48.128;16.458;2022-12-11T13:04:54;4.47;;;2.63;;
73729;SDS011;62036;48.128;16.458;2022-12-11T13:07:21;4.78;;;2.33;;
73729;SDS011;62036;48.128;16.458;2022-12-11T13:10:01;4.40;;;2.45;;
73729;SDS011;62036;48.128;16.458;2022-12-11T13:12:32;4.05;;;2.55;;
73729;SDS011;62036;48.128;16.458;2022-12-11T13:14:59;5.68;;;2.72;;
73729;SDS011;62036;48.128;16.458;2022-12-11T13:17:34;4.30;;;2.28;;
73729;SDS011;62036;48.128;16.458;2022-12-11T13:20:17;4.35;;;2.72;;
73729;SDS011;62036;48.128;16.458;2022-12-11T13:22:47;4.03;;;2.58;;
73729;SDS011;62036;48.128;16.458;2022-12-11T13:25:19;5.15;;;2.20;;
73729;SDS011;62036;48.128;16.458;2022-12-11T13:27:46;3.75;;;2.13;;
73729;SDS011;62036;48.128;16.458;2022-12-11T13:32:51;3.90;;;2.67;;
73729;SDS011;62036;48.128;16.458;2022-12-11T13:35:19;5.82;;;2.35;;
73729;SDS011;62036;48.128;16.458;2022-12-11T13:40:15;5.07;;;1.77;;
73729;SDS011;62036;48.128;16.458;2022-12-11T13:45:18;4.82;;;2.53;;
73729;SDS011;62036;48.128;16.458;2022-12-11T13:47:46;3.72;;;2.30;;
73729;SDS011;62036;48.128;16.458;2022-12-11T13:52:38;5.55;;;3.35;;
73729;SDS011;62036;48.128;16.458;2022-12-11T13:55:11;6.80;;;2.20;;
73729;SDS011;62036;48.128;16.458;2022-12-11T13:57:44;4.43;;;2.95;;
73729;SDS011;62036;48.128;16.458;2022-12-11T14:00:20;6.57;;;3.55;;
73729;SDS011;62036;48.128;16.458;2022-12-11T14:02:47;3.90;;;2.50;;
73729;SDS011;62036;48.128;16.458;2022-12-11T14:05:14;6.25;;;3.25;;
73729;SDS011;62036;48.128;16.458;2022-12-11T14:07:41;3.90;;;2.53;;
73729;SDS011;62036;48.128;16.458;2022-12-11T14:10:24;5.63;;;2.58;;
73729;SDS011;62036;48.128;16.458;2022-12-11T14:13:04;7.03;;;2.70;;
73729;SDS011;62036;48.128;16.458;2022-12-11T14:15:31;5.88;;;3.08;;
73729;SDS011;62036;48.128;16.458;2022-12-11T14:17:58;4.20;;;2.63;;
73729;SDS011;62036;48.128;16.458;2022-12-11T14:20:26;3.95;;;2.40;;
73729;SDS011;62036;48.128;16.458;2022-12-11T14:25:31;3.25;;;1.95;;
73729;SDS011;62036;48.128;16.458;2022-12-11T14:27:57;4.70;;;2.50;;
73729;SDS011;62036;48.128;16.458;2022-12-11T14:30:26;5.95;;;3.08;;
73729;SDS011;62036;48.128;16.458;2022-12-11T14:32:56;3.53;;;1.90;;
73729;SDS011;62036;48.128;16.458;2022-12-11T14:40:15;4.78;;;2.40;;
73729;SDS011;62036;48.128;16.458;2022-12-11T14:42:44;3.67;;;2.33;;
73729;SDS011;62036;48.128;16.458;2022-12-11T14:47:38;3.90;;;2.28;;
73729;SDS011;62036;48.128;16.458;2022-12-11T14:50:07;4.47;;;2.35;;
73729;SDS011;62036;48.128;16.458;2022-12-11T14:53:17;3.92;;;2.20;;
73729;SDS011;62036;48.128;16.458;2022-12-11T14:55:24;4.72;;;2.75;;
73729;SDS011;62036;48.128;16.458;2022-12-11T14:57:55;4.15;;;2.47;;
73729;SDS011;62036;48.128;16.458;2022-12-11T15:00:26;3.55;;;2.10;;
73729;SDS011;62036;48.128;16.458;2022-12-11T15:03:35;4.07;;;2.75;;
73729;SDS011;62036;48.128;16.458;2022-12-11T15:05:54;4.35;;;2.50;;
73729;SDS011;62036;48.128;16.458;2022-12-11T15:08:24;4.30;;;2.10;;
73729;SDS011;62036;48.128;16.458;2022-12-11T15:11:05;2.80;;;1.83;;
73729;SDS011;62036;48.128;16.458;2022-12-11T15:13:33;5.00;;;2.45;;
73729;SDS011;62036;48.128;16.458;2022-12-11T15:16:00;3.90;;;2.17;;
73729;SDS011;62036;48.128;16.458;2022-12-11T15:18:27;6.85;;;2.63;;
73729;SDS011;62036;48.128;16.458;2022-12-11T15:20:55;4.68;;;3.08;;
73729;SDS011;62036;48.128;16.458;2022-12-11T15:23:21;3.40;;;2.22;;
73729;SDS011;62036;48.128;16.458;2022-12-11T15:30:59;5.50;;;2.85;;
73729;SDS011;62036;48.128;16.458;2022-12-11T15:33:26;3.65;;;2.42;;
73729;SDS011;62036;48.128;16.458;2022-12-11T15:36:02;3.72;;;2.42;;
73729;SDS011;62036;48.128;16.458;2022-12-11T15:38:36;6.72;;;3.45;;
73729;SDS011;62036;48.128;16.458;2022-12-11T15:41:13;3.40;;;2.03;;
73729;SDS011;62036;48.128;16.458;2022-12-11T15:43:40;9.95;;;3.20;;
73729;SDS011;62036;48.128;16.458;2022-12-11T15:46:06;4.28;;;2.22;;
73729;SDS011;62036;48.128;16.458;2022-12-11T15:50:58;3.72;;;2.65;;
73729;SDS011;62036;48.128;16.458;2022-12-11T15:53:24;2.80;;;2.10;;
73729;SDS011;62036;48.128;16.458;2022-12-11T15:55:50;5.82;;;3.65;;
73729;SDS011;62036;48.128;16.458;2022-12-11T15:58:18;4.03;;;2.47;;
73729;SDS011;62036;48.128;16.458;2022-12-11T16:00:45;4.30;;;2.83;;
73729;SDS011;62036;48.128;16.458;2022-12-11T16:03:11;5.72;;;2.83;;
73729;SDS011;62036;48.128;16.458;2022-12-11T16:05:38;6.32;;;3.85;;
73729;SDS011;62036;48.128;16.458;2022-12-11T16:08:04;8.05;;;3.80;;
73729;SDS011;62036;48.128;16.458;2022-12-11T16:10:30;6.47;;;3.35;;
73729;SDS011;62036;48.128;16.458;2022-12-11T16:15:24;6.63;;;3.72;;
73729;SDS011;62036;48.128;16.458;2022-12-11T16:17:58;3.75;;;1.88;;
73729;SDS011;62036;48.128;16.458;2022-12-11T16:20:24;6.80;;;2.70;;
73729;SDS011;62036;48.128;16.458;2022-12-11T16:22:50;4.57;;;2.70;;
73729;SDS011;62036;48.128;16.458;2022-12-11T16:25:16;5.32;;;2.85;;
73729;SDS011;62036;48.128;16.458;2022-12-11T16:27:42;5.97;;;3.50;;
73729;SDS011;62036;48.128;16.458;2022-12-11T16:30:08;7.03;;;5.47;;
73729;SDS011;62036;48.128;16.458;2022-12-11T16:32:35;4.43;;;2.58;;
73729;SDS011;62036;48.128;16.458;2022-12-11T16:35:01;4.78;;;2.33;;
73729;SDS011;62036;48.128;16.458;2022-12-11T16:37:27;6.43;;;3.13;;
73729;SDS011;62036;48.128;16.458;2022-12-11T16:39:53;5.82;;;2.75;;
73729;SDS011;62036;48.128;16.458;2022-12-11T16:42:19;5.38;;;3.22;;
73729;SDS011;62036;48.128;16.458;2022-12-11T16:44:45;6.65;;;3.70;;
73729;SDS011;62036;48.128;16.458;2022-12-11T16:47:12;4.53;;;2.75;;
73729;SDS011;62036;48.128;16.458;2022-12-11T16:49:38;7.10;;;3.38;;
73729;SDS011;62036;48.128;16.458;2022-12-11T16:52:05;4.53;;;2.38;;
73729;SDS011;62036;48.128;16.458;2022-12-11T16:54:31;9.30;;;4.40;;
73729;SDS011;62036;48.128;16.458;2022-12-11T16:56:57;8.15;;;3.58;;
73729;SDS011;62036;48.128;16.458;2022-12-11T16:59:23;6.70;;;3.17;;
73729;SDS011;62036;48.128;16.458;2022-12-11T17:04:15;4.68;;;2.65;;
73729;SDS011;62036;48.128;16.458;2022-12-11T17:09:07;4.93;;;2.25;;
73729;SDS011;62036;48.128;16.458;2022-12-11T17:13:59;3.67;;;2.35;;
73729;SDS011;62036;48.128;16.458;2022-12-11T17:16:25;5.35;;;3.28;;
73729;SDS011;62036;48.128;16.458;2022-12-11T17:18:53;5.53;;;2.70;;
73729;SDS011;62036;48.128;16.458;2022-12-11T17:21:20;9.93;;;4.68;;
73729;SDS011;62036;48.128;16.458;2022-12-11T17:23:46;9.70;;;4.35;;
73729;SDS011;62036;48.128;16.458;2022-12-11T17:26:13;4.53;;;3.45;;
73729;SDS011;62036;48.128;16.458;2022-12-11T17:28:39;4.20;;;2.97;;
73729;SDS011;62036;48.128;16.458;2022-12-11T17:33:31;6.72;;;3.80;;
73729;SDS011;62036;48.128;16.458;2022-12-11T17:36:00;7.13;;;3.78;;
73729;SDS011;62036;48.128;16.458;2022-12-11T17:38:27;9.38;;;5.25;;
73729;SDS011;62036;48.128;16.458;2022-12-11T17:40:53;11.38;;;5.75;;
73729;SDS011;62036;48.128;16.458;2022-12-11T17:43:19;9.93;;;4.00;;
73729;SDS011;62036;48.128;16.458;2022-12-11T17:45:46;10.80;;;5.63;;
73729;SDS011;62036;48.128;16.458;2022-12-11T17:48:12;5.43;;;3.60;;
73729;SDS011;62036;48.128;16.458;2022-12-11T17:50:42;12.32;;;6.05;;
73729;SDS011;62036;48.128;16.458;2022-12-11T17:53:09;8.00;;;4.10;;
73729;SDS011;62036;48.128;16.458;2022-12-11T17:55:37;7.75;;;3.80;;
73729;SDS011;62036;48.128;16.458;2022-12-11T17:58:06;5.15;;;3.97;;
73729;SDS011;62036;48.128;16.458;2022-12-11T18:00:32;11.30;;;6.70;;
73729;SDS011;62036;48.128;16.458;2022-12-11T18:02:58;14.20;;;5.97;;
73729;SDS011;62036;48.128;16.458;2022-12-11T18:05:24;9.23;;;4.75;;
73729;SDS011;62036;48.128;16.458;2022-12-11T18:07:50;12.60;;;6.40;;
73729;SDS011;62036;48.128;16.458;2022-12-11T18:10:16;13.93;;;7.45;;
73729;SDS011;62036;48.128;16.458;2022-12-11T18:12:42;7.68;;;4.25;;
73729;SDS011;62036;48.128;16.458;2022-12-11T18:15:09;12.73;;;6.18;;
73729;SDS011;62036;48.128;16.458;2022-12-11T18:20:01;12.23;;;7.30;;
73729;SDS011;62036;48.128;16.458;2022-12-11T18:22:27;11.38;;;5.68;;
73729;SDS011;62036;48.128;16.458;2022-12-11T18:24:55;15.80;;;6.55;;
73729;SDS011;62036;48.128;16.458;2022-12-11T18:27:22;13.95;;;6.50;;
73729;SDS011;62036;48.128;16.458;2022-12-11T18:32:14;6.13;;;3.38;;
73729;SDS011;62036;48.128;16.458;2022-12-11T18:34:40;7.93;;;5.18;;
73729;SDS011;62036;48.128;16.458;2022-12-11T18:37:06;15.60;;;6.63;;
73729;SDS011;62036;48.128;16.458;2022-12-11T18:39:32;13.15;;;6.60;;
73729;SDS011;62036;48.128;16.458;2022-12-11T18:41:59;13.45;;;7.43;;